Latest Weather Observations for Moruya Airport

IDN60801

Issued at 10:32 pm EST Tuesday 23 May 2017 (issued every 30 minutes, with the page automatically refreshed every 10 minutes)

About weather observations | Map of weather stations | Latest weather observations for NSW | Other Formats
Station Details ID: 069148 Name: MORUYA AIRPORT AWS Lat: -35.90 Lon: 150.14 Height: 4.0 m
Data from the previous 72 hours. | See also: Recent months at Moruya Airport
Date/Time
EST
Temp
°C
App
Temp
°C
Dew
Point
°C
Rel
Hum
%
Delta-T
°C
Wind Press
QNH
hPa
Press
MSL
hPa
Rain since
9am
mm
Dir  Spd
km/h
Gust
km/h
Spd
kts
Gust
kts
23/10:30pm 12.0 11.1 9.4 84 1.3 NNE 4 7 2 4 1015.5 1015.5 0.0
23/10:04pm 13.8 13.0 11.1 84 1.4 NE 6 9 3 5 1015.5 1015.5 0.0
23/10:00pm 12.7 11.6 9.9 83 1.4 NE 6 7 3 4 1015.5 1015.5 0.0
23/09:43pm 12.5 11.2 9.3 81 1.6 NE 6 9 3 5 1015.5 1015.5 0.0
23/09:30pm 12.6 12.0 9.1 79 1.8 NNW 2 6 1 3 1015.5 1015.5 0.0
23/09:00pm 13.5 12.1 9.7 78 1.9 N 7 11 4 6 1015.4 1015.4 0.0
23/08:30pm 13.5 11.8 9.7 78 1.9 NNW 9 11 5 6 1015.3 1015.3 0.0
23/08:00pm 11.8 11.9 10.0 89 0.9 CALM 0 6 0 3 1015.4 1015.4 0.0
23/07:30pm 12.7 12.3 9.7 82 1.5 N 2 7 1 4 1015.3 1015.3 0.0
23/07:00pm 13.8 12.8 11.0 83 1.5 N 7 11 4 6 1015.3 1015.3 0.0
23/06:30pm 16.3 14.3 12.7 79 2.0 N 15 19 8 10 1015.0 1015.0 0.0
23/06:00pm 14.9 13.9 12.2 84 1.5 N 9 11 5 6 1015.0 1015.0 0.0
23/05:30pm 15.6 14.5 12.0 79 2.0 N 9 13 5 7 1015.4 1015.4 0.0
23/05:11pm 16.7 15.6 12.0 74 2.6 N 9 11 5 6 1015.3 1015.3 0.0
23/05:00pm 16.9 15.9 12.2 74 2.6 NNE 9 11 5 6 1015.2 1015.2 0.0
23/04:51pm 17.3 16.8 12.8 75 2.5 NNE 7 11 4 6 1015.2 1015.2 0.0
23/04:43pm 17.5 16.7 12.8 74 2.6 N 9 11 5 6 1015.2 1015.2 0.0
23/04:30pm 18.0 17.2 12.9 72 2.9 N 9 13 5 7 1015.0 1015.0 0.0
23/04:26pm 18.1 17.0 13.2 73 2.8 N 11 13 6 7 1015.0 1015.0 0.0
23/04:00pm 19.9 18.2 13.6 67 3.6 NE 15 19 8 10 1014.9 1014.9 0.0
23/03:30pm 20.2 18.3 14.1 68 3.5 NE 17 20 9 11 1014.9 1014.9 0.0
23/03:00pm 20.2 18.7 14.3 69 3.4 NE 15 19 8 10 1015.1 1015.1 0.0
23/02:30pm 20.8 19.1 13.7 64 4.1 NE 15 19 8 10 1015.4 1015.4 0.0
23/02:00pm 20.8 18.7 13.7 64 4.1 NNE 17 20 9 11 1015.5 1015.5 0.0
23/01:30pm 20.2 18.3 14.1 68 3.5 NE 17 20 9 11 1015.6 1015.6 0.0
23/01:00pm 20.1 18.7 14.5 70 3.3 NE 15 19 8 10 1015.9 1015.9 0.0
23/12:30pm 20.0 18.6 13.5 66 3.7 ENE 13 17 7 9 1016.7 1016.7 0.0
23/12:00pm 21.6 21.0 13.5 60 4.7 N 9 15 5 8 1017.3 1017.3 0.0
23/11:30am 20.1 18.7 12.3 61 4.4 N 11 15 6 8 1017.7 1017.7 0.0
23/11:00am 19.1 18.0 12.1 64 3.9 N 9 15 5 8 1018.3 1018.3 0.0
23/10:30am 18.3 17.2 12.1 67 3.4 N 9 13 5 7 1018.7 1018.7 0.0
23/10:00am 17.6 16.7 12.7 73 2.7 N 9 13 5 7 1019.2 1019.2 0.0
23/09:30am 15.8 15.3 12.5 81 1.8 NNW 7 11 4 6 1019.6 1019.6 0.0
23/09:00am 13.4 14.2 12.5 94 0.5 CALM 0 0 0 0 1019.7 1019.7 0.0
23/08:30am 11.5 11.8 10.9 96 0.3 CALM 0 0 0 0 1020.0 1020.0 0.0
23/08:04am 9.7 9.5 9.2 97 0.2 CALM 0 0 0 0 1020.0 1020.0 0.0
23/08:00am 9.1 8.8 8.6 97 0.2 CALM 0 0 0 0 1020.0 1020.0 0.0
23/07:30am 6.6 5.7 6.0 96 0.3 CALM 0 0 0 0 1020.0 1020.0 0.0
23/07:00am 6.5 5.6 5.9 96 0.3 CALM 0 0 0 0 1019.8 1019.8 0.0
23/06:30am 6.6 5.7 6.0 96 0.3 CALM 0 0 0 0 1019.7 1019.7 0.0
23/06:00am 6.4 5.4 5.8 96 0.3 CALM 0 0 0 0 1019.5 1019.5 0.0
23/05:30am 6.6 5.3 6.0 96 0.3 WNW 2 7 1 4 1019.5 1019.5 0.0
23/05:00am 7.1 6.3 6.5 96 0.3 CALM 0 0 0 0 1019.4 1019.4 0.0
23/04:30am 6.9 6.1 6.3 96 0.3 CALM 0 6 0 3 1019.6 1019.6 0.0
23/04:00am 6.8 5.9 6.2 96 0.3 CALM 0 0 0 0 1019.7 1019.7 0.0
23/03:30am 6.9 6.1 6.3 96 0.3 CALM 0 0 0 0 1019.8 1019.8 0.0
23/03:00am 7.4 6.7 6.8 96 0.3 CALM 0 0 0 0 1020.0 1020.0 0.0
23/02:30am 7.5 6.8 6.9 96 0.3 CALM 0 0 0 0 1020.3 1020.3 0.0
23/02:00am 8.3 6.6 7.7 96 0.3 WSW 6 9 3 5 1020.6 1020.6 0.0
23/01:30am 8.4 7.1 7.8 96 0.3 NW 4 7 2 4 1021.1 1021.1 0.0
23/01:00am 8.3 7.8 7.7 96 0.3 CALM 0 0 0 0 1021.4 1021.4 0.0
23/12:47am 8.9 8.5 8.3 96 0.3 CALM 0 0 0 0 1021.6 1021.6 0.0
23/12:30am 9.1 8.8 8.5 96 0.3 CALM 0 0 0 0 1021.7 1021.7 0.0
23/12:00am 9.5 9.3 8.9 96 0.3 CALM 0 0 0 0 1021.9 1021.9 0.0
 
Date/Time
EST
Temp
°C
App
Temp
°C
Dew
Point
°C
Rel
Hum
%
Delta-T
°C
Wind Press
QNH
hPa
Press
MSL
hPa
Rain since
9am
mm
Dir  Spd
km/h
Gust
km/h
Spd
kts
Gust
kts
22/11:52pm 9.4 9.1 8.8 96 0.3 CALM 0 0 0 0 1022.1 1022.1 0.0
22/11:30pm 9.8 9.6 9.2 96 0.3 CALM 0 0 0 0 1022.1 1022.1 0.0
22/11:00pm 9.3 9.0 8.5 95 0.4 CALM 0 0 0 0 1022.2 1022.2 0.0
22/10:30pm 9.4 9.1 8.6 95 0.4 CALM 0 0 0 0 1022.2 1022.2 0.0
22/10:00pm 10.6 10.6 9.8 95 0.4 CALM 0 0 0 0 1022.3 1022.3 0.0
22/09:30pm 10.7 10.7 9.9 95 0.4 CALM 0 0 0 0 1022.5 1022.5 0.0
22/09:00pm 11.2 11.4 10.4 95 0.4 CALM 0 0 0 0 1022.3 1022.3 0.0
22/08:30pm 11.0 11.1 10.1 94 0.5 CALM 0 0 0 0 1022.2 1022.2 0.0
22/08:00pm 10.8 9.6 9.7 93 0.6 NW 6 7 3 4 1022.2 1022.2 0.0
22/07:30pm 12.1 11.2 11.2 94 0.5 NNW 7 9 4 5 1022.2 1022.2 0.0
22/07:00pm 11.5 10.8 9.9 90 0.8 NW 4 7 2 4 1022.1 1022.1 0.0
22/06:30pm 13.1 13.7 12.0 93 0.6 CALM 0 6 0 3 1021.9 1021.9 0.0
22/06:13pm 13.6 13.2 12.3 92 0.7 N 6 7 3 4 1021.8 1021.8 0.0
22/06:00pm 13.2 12.5 11.3 88 1.0 NNW 6 7 3 4 1021.8 1021.8 0.0
22/05:30pm 14.9 14.5 12.9 88 1.1 N 7 11 4 6 1021.6 1021.6 0.0
22/05:00pm 16.1 15.6 13.8 86 1.3 N 9 11 5 6 1021.3 1021.3 0.0
22/04:54pm 16.1 15.6 13.8 86 1.3 N 9 9 5 5 1021.3 1021.3 0.0
22/04:33pm 16.5 15.5 13.4 82 1.7 NNE 11 13 6 7 1021.2 1021.2 0.0
22/04:30pm 16.8 15.8 13.5 81 1.9 NNE 11 15 6 8 1021.3 1021.3 0.0
22/04:00pm 18.1 16.5 13.8 76 2.4 NNE 15 19 8 10 1021.3 1021.3 0.0
22/03:30pm 18.4 16.7 13.7 74 2.7 NNE 15 20 8 11 1021.3 1021.3 0.0
22/03:00pm 18.7 17.2 14.2 75 2.6 NE 15 19 8 10 1021.4 1021.4 0.0
22/02:30pm 18.4 16.3 13.7 74 2.7 NE 17 20 9 11 1021.6 1021.6 0.0
22/02:00pm 18.4 16.4 12.6 69 3.2 NE 15 19 8 10 1021.8 1021.8 0.0
22/01:30pm 18.7 16.7 12.7 68 3.4 NE 15 17 8 9 1021.9 1021.9 0.0
22/01:00pm 18.4 16.2 12.2 67 3.4 ENE 15 19 8 10 1022.1 1022.1 0.0
22/12:30pm 18.2 16.3 11.7 66 3.6 ENE 13 15 7 8 1022.4 1022.4 0.0
22/12:00pm 18.4 17.1 12.6 69 3.2 ENE 11 13 6 7 1022.8 1022.8 0.0
22/11:30am 18.3 17.4 11.4 64 3.8 ENE 7 11 4 6 1023.3 1023.3 0.0
22/11:00am 17.8 18.0 11.8 68 3.3 ENE 2 7 1 4 1023.7 1023.7 0.0
22/10:30am 17.3 16.7 10.4 64 3.7 NNW 4 9 2 5 1024.0 1024.0 0.0
22/10:00am 15.0 13.8 10.4 74 2.4 SW 7 11 4 6 1024.2 1024.2 0.0
22/09:30am 13.5 12.2 10.1 80 1.8 SW 7 11 4 6 1024.5 1024.5 0.0
22/09:00am 12.6 12.4 10.5 87 1.1 N 2 7 1 4 1024.5 1024.5 0.0
22/08:30am 10.8 10.7 9.4 91 0.7 CALM 0 0 0 0 1024.4 1024.4 0.0
22/08:00am 9.6 9.4 9.0 96 0.3 CALM 0 0 0 0 1024.1 1024.1 0.0
22/07:46am 9.2 8.9 8.6 96 0.3 CALM 0 0 0 0 1023.9 1023.9 0.0
22/07:30am 7.6 6.9 7.0 96 0.3 CALM 0 6 0 3 1023.7 1023.7 0.0
22/07:00am 6.5 5.6 5.9 96 0.3 CALM 0 0 0 0 1023.5 1023.5 0.0
22/06:30am 7.6 6.9 7.0 96 0.3 CALM 0 0 0 0 1023.3 1023.3 0.0
22/06:00am 7.5 5.6 6.9 96 0.3 W 6 9 3 5 1023.0 1023.0 0.0
22/05:30am 8.1 7.5 7.5 96 0.3 CALM 0 0 0 0 1022.7 1022.7 0.0
22/05:00am 7.7 7.0 7.1 96 0.3 CALM 0 0 0 0 1022.4 1022.4 0.0
22/04:30am 8.4 7.9 7.8 96 0.3 CALM 0 0 0 0 1022.4 1022.4 0.0
22/04:00am 8.2 7.6 7.6 96 0.3 CALM 0 0 0 0 1022.4 1022.4 0.0
22/03:30am 7.9 7.3 7.3 96 0.3 CALM 0 0 0 0 1022.3 1022.3 0.0
22/03:00am 7.7 7.0 7.1 96 0.3 CALM 0 0 0 0 1022.4 1022.4 0.0
22/02:30am 8.0 7.4 7.2 95 0.4 CALM 0 0 0 0 1022.5 1022.5 0.0
22/02:00am 8.8 8.3 8.0 95 0.4 CALM 0 0 0 0 1022.5 1022.5 0.0
22/01:30am 9.4 9.1 8.8 96 0.3 CALM 0 0 0 0 1022.5 1022.5 0.0
22/01:00am 9.4 9.1 8.8 96 0.3 CALM 0 0 0 0 1022.6 1022.6 0.0
22/12:30am 9.8 9.6 9.2 96 0.3 CALM 0 0 0 0 1022.7 1022.7 0.0
22/12:00am 9.6 9.3 8.8 95 0.4 CALM 0 0 0 0 1022.7 1022.7 0.0
 
Date/Time
EST
Temp
°C
App
Temp
°C
Dew
Point
°C
Rel
Hum
%
Delta-T
°C
Wind Press
QNH
hPa
Press
MSL
hPa
Rain since
9am
mm
Dir  Spd
km/h
Gust
km/h
Spd
kts
Gust
kts
21/11:30pm 10.5 10.5 9.7 95 0.4 CALM 0 0 0 0 1022.8 1022.8 0.0
21/11:00pm 10.1 10.0 9.3 95 0.4 CALM 0 0 0 0 1022.7 1022.7 0.0
21/10:30pm 11.1 10.5 10.3 95 0.4 W 4 6 2 3 1022.6 1022.6 0.0
21/10:00pm 10.6 10.6 9.8 95 0.4 CALM 0 0 0 0 1022.4 1022.4 0.0
21/09:30pm 11.2 10.2 10.4 95 0.4 W 6 7 3 4 1022.5 1022.5 0.0
21/09:00pm 10.9 10.2 10.0 94 0.5 W 4 6 2 3 1022.4 1022.4 0.0
21/08:30pm 11.6 11.1 10.7 94 0.5 W 4 6 2 3 1022.3 1022.3 0.0
21/08:00pm 11.8 11.3 10.9 94 0.5 WSW 4 6 2 3 1022.0 1022.0 0.0
21/07:30pm 11.7 11.9 10.4 92 0.7 CALM 0 0 0 0 1021.7 1021.7 0.0
21/07:15pm 12.7 13.2 11.6 93 0.6 CALM 0 0 0 0 1021.6 1021.6 0.0
21/07:00pm 12.7 13.2 11.6 93 0.6 CALM 0 0 0 0 1021.5 1021.5 0.0
21/06:30pm 12.9 13.1 11.8 93 0.6 WNW 2 6 1 3 1021.3 1021.3 0.0
21/06:29pm 12.9 13.1 11.8 93 0.6 NW 2 6 1 3 1021.3 1021.3 0.0
21/06:07pm 12.9 13.0 11.5 91 0.7 NW 2 6 1 3 1021.0 1021.0 0.0
21/06:00pm 13.0 12.7 11.4 90 0.8 NW 4 7 2 4 1020.9 1020.9 0.0
21/05:30pm 13.9 13.4 12.5 91 0.8 NNW 7 7 4 4 1020.5 1020.5 0.0
21/05:00pm 14.8 14.6 11.9 83 1.6 NNE 4 7 2 4 1020.2 1020.2 0.0
21/04:57pm 14.9 14.6 11.5 80 1.8 NNE 4 7 2 4 1020.1 1020.1 0.0
21/04:36pm 16.9 16.1 12.8 77 2.3 ENE 9 11 5 6 1020.0 1020.0 0.0
21/04:30pm 17.4 16.6 12.9 75 2.5 ENE 9 9 5 5 1020.0 1020.0 0.0
21/04:00pm 18.4 17.7 13.1 71 3.0 ENE 9 11 5 6 1020.0 1020.0 0.0
21/03:30pm 18.7 17.8 12.5 67 3.5 ENE 9 11 5 6 1019.8 1019.8 0.0
21/03:00pm 19.0 17.6 12.3 65 3.7 NE 11 13 6 7 1019.7 1019.7 0.0
21/02:30pm 18.9 17.0 11.9 64 3.9 ENE 13 15 7 8 1019.5 1019.5 0.0
21/02:00pm 19.2 17.4 12.0 63 4.0 ENE 13 15 7 8 1019.3 1019.3 0.0
21/01:30pm 19.3 17.1 10.8 58 4.6 ENE 13 15 7 8 1019.4 1019.4 0.0
21/01:00pm 19.2 17.8 12.2 64 3.9 ENE 11 13 6 7 1019.5 1019.5 0.0
21/12:30pm 19.5 18.1 12.3 63 4.0 ENE 11 13 6 7 1019.7 1019.7 0.0
21/12:00pm 19.3 17.6 10.0 55 5.0 ENE 9 11 5 6 1020.0 1020.0 0.0
21/11:30am 20.2 20.1 10.9 55 5.1 WSW 2 13 1 7 1020.4 1020.4 0.0
21/11:00am 19.4 18.8 10.4 56 4.8 WSW 4 9 2 5 1020.7 1020.7 0.0
21/10:30am 18.7 18.2 12.0 65 3.7 WNW 6 9 3 5 1020.9 1020.9 0.0
21/10:00am 17.1 16.5 11.6 70 3.0 WSW 6 11 3 6 1020.9 1020.9 0.0
21/09:30am 15.4 14.6 11.0 75 2.3 WNW 6 9 3 5 1021.0 1021.0 0.0
21/09:00am 12.0 10.9 10.1 88 1.0 SW 6 9 3 5 1020.9 1020.9 0.2
21/08:30am 11.8 11.6 10.4 91 0.7 WSW 2 7 1 4 1020.6 1020.6 0.2
21/08:00am 11.5 11.0 10.6 94 0.5 WSW 4 7 2 4 1020.3 1020.3 0.2
21/07:30am 10.7 10.7 9.9 95 0.4 CALM 0 0 0 0 1019.9 1019.9 0.2
21/07:00am 10.0 8.7 9.1 94 0.4 WSW 6 7 3 4 1019.5 1019.5 0.2
21/06:30am 10.2 9.0 9.4 95 0.4 SW 6 11 3 6 1019.1 1019.1 0.2
21/06:00am 10.5 9.8 9.9 96 0.3 WSW 4 7 2 4 1018.8 1018.8 0.2
21/05:30am 10.3 10.3 9.7 96 0.3 CALM 0 0 0 0 1018.6 1018.6 0.2
21/05:00am 9.7 9.5 8.9 95 0.4 CALM 0 0 0 0 1018.2 1018.2 0.2
21/04:30am 9.9 9.7 9.1 95 0.4 CALM 0 0 0 0 1018.2 1018.2 0.2
21/04:11am 9.4 9.1 8.6 95 0.4 CALM 0 0 0 0 1018.1 1018.1 0.2
21/04:00am 9.4 9.1 8.5 94 0.4 CALM 0 0 0 0 1018.1 1018.1 0.2
21/03:59am 9.6 9.3 8.7 94 0.4 CALM 0 0 0 0 1018.1 1018.1 0.2
21/03:42am 9.4 9.1 8.5 94 0.4 CALM 0 0 0 0 1018.0 1018.0 0.2
21/03:30am 10.1 10.0 9.3 95 0.4 CALM 0 0 0 0 1017.9 1017.9 0.2
21/03:19am 9.5 8.8 8.6 94 0.4 W 2 7 1 4 1017.8 1017.8 0.2
21/03:00am 10.0 8.7 9.1 94 0.4 WSW 6 9 3 5 1017.7 1017.7 0.2
21/02:30am 10.3 9.1 9.4 94 0.4 W 6 7 3 4 1017.8 1017.8 0.2
21/02:00am 10.6 8.9 9.8 95 0.4 W 9 15 5 8 1017.7 1017.7 0.2
21/01:59am 10.5 8.8 9.7 95 0.4 W 9 15 5 8 1017.7 1017.7 0.2
21/01:30am 9.2 7.7 8.4 95 0.4 WSW 6 9 3 5 1017.7 1017.7 0.2
21/01:05am 9.9 8.4 9.0 94 0.4 WSW 7 9 4 5 1017.9 1017.9 0.2
21/01:00am 10.2 8.7 9.3 94 0.4 WSW 7 11 4 6 1017.8 1017.8 0.2
21/12:30am 11.0 9.0 10.2 95 0.4 SW 11 13 6 7 1017.6 1017.6 0.2
21/12:06am 10.7 8.7 10.1 96 0.3 SW 11 13 6 7 1017.5 1017.5 0.2
21/12:00am 10.7 9.1 10.1 96 0.3 WSW 9 15 5 8 1017.4 1017.4 0.2
 
Date/Time
EST
Temp
°C
App
Temp
°C
Dew
Point
°C
Rel
Hum
%
Delta-T
°C
Wind Press
QNH
hPa
Press
MSL
hPa
Rain since
9am
mm
Dir  Spd
km/h
Gust
km/h
Spd
kts
Gust
kts
20/11:30pm 8.8 7.6 8.2 96 0.3 W 4 7 2 4 1017.3 1017.3 0.2
20/11:00pm 9.5 8.9 8.9 96 0.3 SW 2 7 1 4 1017.4 1017.4 0.2

Other Formats:

Comma delimited format used in spreadsheet applications
http://www.bom.gov.au/fwo/IDN60801/IDN60801.95937.axf

JavaScript Object Notation format (JSON) in row-major order
http://www.bom.gov.au/fwo/IDN60801/IDN60801.95937.json